Latest Weather Observations for Onslow Airport

IDW60801

Issued at 5:13 pm WST Tuesday 22 October 2019 (issued every 10 minutes, with the page automatically refreshed every 10 minutes)

About weather observations | Map of weather stations | Latest weather observations for WA | Other Formats
Station Details ID: 005017 Name: ONSLOW AIRPORT Lat: -21.67 Lon: 115.11 Height: 10.5 m
Data from the previous 72 hours. | See also: Recent months at Onslow Airport
Date/Time
WST
Temp
°C
App
Temp
°C
Dew
Point
°C
Rel
Hum
%
Delta-T
°C
Wind Press
QNH
hPa
Press
MSL
hPa
Rain since
9am
mm
Dir  Spd
km/h
Gust
km/h
Spd
kts
Gust
kts
22/05:00pm 35.5 31.3 12.5 25 13.8 W 26 33 14 18 1011.1 1011.1 0.0
22/04:30pm 34.9 30.9 15.3 31 12.3 W 30 37 16 20 1011.0 1011.0 0.0
22/04:00pm 36.1 30.4 13.0 25 14.0 W 35 46 19 25 1010.9 1010.9 0.0
22/03:30pm 37.8 32.3 11.7 21 15.7 W 32 41 17 22 1011.0 1011.0 0.0
22/03:00pm 37.4 32.8 14.7 26 14.2 W 32 39 17 21 1011.2 1011.2 0.0
22/02:30pm 37.7 32.6 13.7 24 14.8 W 33 39 18 21 1011.4 1011.4 0.0
22/02:00pm 37.9 33.6 13.2 23 15.2 W 28 39 15 21 1011.7 1011.7 0.0
22/01:30pm 37.8 32.3 11.7 21 15.7 W 32 37 17 20 1012.0 1012.0 0.0
22/01:00pm 37.5 33.0 11.5 21 15.5 WNW 26 33 14 18 1012.4 1012.4 0.0
22/12:30pm 37.3 34.6 14.6 26 14.2 WNW 22 26 12 14 1012.9 1012.9 0.0
22/12:00pm 40.2 37.5 5.4 12 19.2 ESE 9 17 5 9 1013.4 1013.4 0.0
22/11:30am 40.1 35.4 5.3 12 19.2 SE 19 30 10 16 1014.0 1014.0 0.0
22/11:00am 40.3 35.7 6.6 13 19.0 SE 20 26 11 14 1014.5 1014.5 0.0
22/10:30am 39.1 34.2 6.7 14 18.2 SE 22 28 12 15 1015.0 1015.0 0.0
22/10:00am 36.5 31.2 6.6 16 16.5 SE 24 30 13 16 1015.3 1015.3 0.0
22/09:30am 37.3 31.9 6.3 15 17.1 SSE 24 32 13 17 1015.6 1015.6 0.0
22/09:00am 36.9 31.6 7.0 16 16.6 SE 24 32 13 17 1015.6 1015.6 0.0
22/08:30am 35.0 31.7 9.4 21 14.7 SE 17 20 9 11 1015.7 1015.7 0.0
22/08:00am 32.0 28.3 9.5 25 12.7 SSE 19 22 10 12 1015.7 1015.7 0.0
22/07:30am 29.1 26.2 9.8 30 10.8 S 15 19 8 10 1015.8 1015.8 0.0
22/07:00am 26.4 23.6 10.1 36 9.1 S 15 20 8 11 1015.6 1015.6 0.0
22/06:30am 24.6 22.3 10.5 41 7.8 S 13 17 7 9 1015.3 1015.3 0.0
22/06:00am 23.2 21.0 10.9 46 6.8 SSW 13 15 7 8 1015.2 1015.2 0.0
22/05:30am 23.4 21.4 11.5 47 6.7 S 13 15 7 8 1014.8 1014.8 0.0
22/05:00am 23.8 21.9 11.8 47 6.8 S 13 17 7 9 1014.6 1014.6 0.0
22/04:30am 23.6 20.9 10.3 43 7.3 SSE 15 17 8 9 1014.3 1014.3 0.0
22/04:00am 24.0 20.7 9.6 40 7.8 SSE 17 19 9 10 1014.2 1014.2 0.0
22/03:30am 24.3 21.7 10.6 42 7.6 SSE 15 19 8 10 1014.4 1014.4 0.0
22/03:00am 24.6 21.2 9.3 38 8.3 S 17 20 9 11 1014.5 1014.5 0.0
22/02:30am 25.0 21.4 9.7 38 8.4 SSW 19 22 10 12 1014.5 1014.5 0.0
22/02:00am 25.2 21.3 9.5 37 8.6 SSW 20 24 11 13 1014.8 1014.8 0.0
22/01:30am 25.1 21.5 9.8 38 8.4 S 19 22 10 12 1015.0 1015.0 0.0
22/01:00am 25.2 22.3 11.0 41 8.0 S 17 20 9 11 1015.0 1015.0 0.0
22/12:30am 25.3 22.9 12.5 45 7.4 SSW 17 20 9 11 1015.5 1015.5 0.0
22/12:00am 25.6 23.0 13.1 46 7.3 SSW 19 20 10 11 1015.6 1015.6 0.0
 
Date/Time
WST
Temp
°C
App
Temp
°C
Dew
Point
°C
Rel
Hum
%
Delta-T
°C
Wind Press
QNH
hPa
Press
MSL
hPa
Rain since
9am
mm
Dir  Spd
km/h
Gust
km/h
Spd
kts
Gust
kts
21/11:30pm 26.0 23.3 13.5 46 7.3 SSW 20 24 11 13 1015.8 1015.8 0.0
21/11:00pm 26.4 23.8 13.9 46 7.4 SW 20 28 11 15 1015.9 1015.9 0.0
21/10:30pm 26.8 23.9 13.9 45 7.7 SW 22 28 12 15 1015.9 1015.9 0.0
21/10:00pm 27.6 24.4 14.3 44 8.0 SW 24 32 13 17 1015.8 1015.8 0.0
21/09:30pm 28.2 25.1 13.3 40 8.8 SW 22 30 12 16 1015.7 1015.7 0.0
21/09:00pm 28.5 26.1 14.3 41 8.5 SW 20 28 11 15 1015.5 1015.5 0.0
21/08:30pm 27.7 26.7 17.5 53 6.4 WSW 19 24 10 13 1015.3 1015.3 0.0
21/08:00pm 26.3 26.0 16.5 54 6.0 W 13 15 7 8 1015.2 1015.2 0.0
21/07:30pm 26.6 27.0 19.0 63 4.9 W 15 19 8 10 1014.9 1014.9 0.0
21/07:00pm 26.8 26.5 19.2 63 4.9 W 19 22 10 12 1014.4 1014.4 0.0
21/06:30pm 27.1 26.5 18.9 61 5.3 W 20 24 11 13 1014.1 1014.1 0.0
21/06:00pm 27.7 26.9 19.2 60 5.5 W 22 28 12 15 1013.9 1013.9 0.0
21/05:30pm 28.7 27.4 19.1 56 6.2 W 24 30 13 16 1013.6 1013.6 0.0
21/05:00pm 30.7 29.1 17.4 45 8.4 WNW 22 28 12 15 1013.4 1013.4 0.0
21/04:30pm 32.0 28.4 14.2 34 10.8 WNW 26 32 14 17 1013.4 1013.4 0.0
21/04:00pm 32.5 28.7 14.6 34 11.0 WNW 28 33 15 18 1013.5 1013.5 0.0
21/03:30pm 31.9 29.9 17.4 42 9.2 WNW 24 32 13 17 1013.5 1013.5 0.0
21/03:00pm 34.0 31.8 15.9 33 11.4 NW 22 28 12 15 1013.5 1013.5 0.0
21/02:30pm 33.7 31.4 15.7 34 11.3 NW 22 28 12 15 1013.7 1013.7 0.0
21/02:00pm 33.7 31.2 16.1 34 11.1 NW 24 32 13 17 1013.9 1013.9 0.0
21/01:30pm 34.5 31.5 15.9 33 11.7 WNW 26 32 14 17 1013.9 1013.9 0.0
21/01:00pm 33.5 31.4 18.0 39 10.0 NW 26 32 14 17 1014.1 1014.1 0.0
21/12:30pm 36.8 33.5 14.1 25 14.0 WNW 24 26 13 14 1014.2 1014.2 0.0
21/12:00pm 35.3 32.6 14.6 29 12.8 WNW 22 26 12 14 1014.5 1014.5 0.0
21/11:30am 38.0 36.6 13.3 23 15.2 W 13 20 7 11 1014.8 1014.8 0.0
21/11:00am 38.0 35.4 5.9 14 17.7 SE 9 15 5 8 1015.1 1015.1 0.0
21/10:30am 37.6 34.7 6.6 15 17.2 SE 11 17 6 9 1015.4 1015.4 0.0
21/10:00am 36.2 32.9 9.7 20 15.3 S 17 20 9 11 1015.5 1015.5 0.0
21/09:30am 34.6 31.5 10.4 23 14.1 S 17 20 9 11 1015.7 1015.7 0.0
21/09:00am 33.0 29.9 11.5 27 12.6 S 19 22 10 12 1016.0 1016.0 0.0
21/08:30am 31.0 28.1 12.4 32 11.0 SSW 19 22 10 12 1015.9 1015.9 0.0
21/08:00am 29.2 26.4 12.6 36 9.7 SSW 19 24 10 13 1015.7 1015.7 0.0
21/07:30am 27.0 23.8 13.0 42 8.2 SSW 22 26 12 14 1015.7 1015.7 0.0
21/07:00am 24.9 22.1 13.1 48 6.8 SSW 20 26 11 14 1015.7 1015.7 0.0
21/06:30am 23.7 21.4 13.0 51 6.2 SSW 17 20 9 11 1015.5 1015.5 0.0
21/06:00am 22.9 20.6 13.1 54 5.6 SSW 17 20 9 11 1015.2 1015.2 0.0
21/05:30am 22.9 20.6 13.1 54 5.6 SSW 17 20 9 11 1015.2 1015.2 0.0
21/05:00am 23.2 20.6 13.1 53 5.8 SSW 19 22 10 12 1015.0 1015.0 0.0
21/04:30am 23.4 20.8 13.3 53 5.8 SSW 19 24 10 13 1014.8 1014.8 0.0
21/04:00am 23.7 21.0 13.6 53 5.9 SSW 20 22 11 12 1014.6 1014.6 0.0
21/03:30am 23.6 21.0 13.8 54 5.7 SW 20 24 11 13 1014.3 1014.3 0.0
21/03:00am 23.7 21.4 14.1 55 5.6 SW 19 20 10 11 1014.3 1014.3 0.0
21/02:30am 23.9 21.8 14.6 56 5.5 SW 19 22 10 12 1014.4 1014.4 0.0
21/02:00am 24.0 21.9 14.7 56 5.5 SW 19 20 10 11 1014.6 1014.6 0.0
21/01:30am 23.9 22.7 15.1 58 5.3 SW 15 17 8 9 1014.8 1014.8 0.0
21/01:00am 24.4 23.7 15.3 57 5.5 SW 13 17 7 9 1014.7 1014.7 0.0
21/12:30am 25.0 23.6 15.6 56 5.7 SW 17 20 9 11 1014.8 1014.8 0.0
21/12:00am 25.6 24.0 15.9 55 5.9 SW 19 22 10 12 1014.8 1014.8 0.0
 
Date/Time
WST
Temp
°C
App
Temp
°C
Dew
Point
°C
Rel
Hum
%
Delta-T
°C
Wind Press
QNH
hPa
Press
MSL
hPa
Rain since
9am
mm
Dir  Spd
km/h
Gust
km/h
Spd
kts
Gust
kts
20/11:30pm 25.9 24.2 16.2 55 6.0 SW 20 24 11 13 1015.0 1015.0 0.0
20/11:00pm 26.3 24.6 16.3 54 6.2 SW 20 26 11 14 1015.1 1015.1 0.0
20/10:30pm 26.8 24.5 15.8 51 6.7 SW 22 30 12 16 1015.0 1015.0 0.0
20/10:00pm 27.4 25.4 15.4 48 7.3 SW 20 28 11 15 1015.1 1015.1 0.0
20/09:30pm 28.0 24.9 14.6 44 8.1 SW 24 32 13 17 1015.2 1015.2 0.0
20/09:00pm 28.2 25.7 15.1 44 8.0 SW 22 28 12 15 1015.1 1015.1 0.0
20/08:30pm 28.7 24.8 12.2 36 9.6 SW 24 30 13 16 1014.9 1014.9 0.0
20/08:00pm 28.5 25.4 10.2 32 10.3 WSW 17 24 9 13 1014.8 1014.8 0.0
20/07:30pm 27.9 25.5 12.7 39 8.9 WSW 17 20 9 11 1014.7 1014.7 0.0
20/07:00pm 26.9 25.9 16.5 53 6.4 W 17 19 9 10 1014.4 1014.4 0.0
20/06:30pm 26.9 26.0 18.2 59 5.5 W 20 26 11 14 1014.1 1014.1 0.0
20/06:00pm 27.5 26.4 17.7 55 6.2 W 20 26 11 14 1013.8 1013.8 0.0
20/05:30pm 29.3 27.8 16.8 47 7.8 W 20 26 11 14 1013.7 1013.7 0.0
20/05:00pm 29.8 27.7 16.2 43 8.5 W 22 28 12 15 1013.5 1013.5 0.0
20/04:30pm 31.1 27.2 14.3 36 10.2 W 28 33 15 18 1013.4 1013.4 0.0
20/04:00pm 31.3 26.7 13.6 34 10.6 W 30 37 16 20 1013.4 1013.4 0.0
20/03:30pm 31.3 27.0 13.1 33 10.9 WNW 28 35 15 19 1013.4 1013.4 0.0
20/03:00pm 31.2 27.6 15.2 38 9.9 WNW 28 37 15 20 1013.6 1013.6 0.0
20/02:30pm 33.7 29.6 13.7 30 12.2 WNW 28 35 15 19 1013.7 1013.7 0.0
20/02:00pm 33.0 30.2 17.2 39 10.1 WNW 28 35 15 19 1013.8 1013.8 0.0
20/01:30pm 33.1 29.6 15.6 35 10.9 WNW 28 35 15 19 1014.0 1014.0 0.0
20/01:00pm 34.4 30.7 13.8 29 12.6 WNW 26 32 14 17 1014.2 1014.2 0.0
20/12:30pm 34.0 31.0 15.9 33 11.4 WNW 26 32 14 17 1014.5 1014.5 0.0
20/12:00pm 34.3 31.6 14.7 30 12.1 WNW 22 30 12 16 1014.7 1014.7 0.0
20/11:30am 35.4 33.3 13.5 26 13.4 WNW 17 26 9 14 1015.0 1015.0 0.0
20/11:00am 35.8 33.2 6.1 16 16.2 SSE 9 20 5 11 1015.5 1015.5 0.0
20/10:30am 34.6 31.4 6.8 18 15.3 S 13 20 7 11 1015.6 1015.6 0.0
20/10:00am 33.4 29.7 8.1 21 14.1 S 17 22 9 12 1016.0 1016.0 0.0
20/09:30am 32.4 28.5 8.6 23 13.3 S 19 22 10 12 1016.2 1016.2 0.0
20/09:00am 30.3 27.7 10.8 30 11.2 S 15 20 8 11 1016.4 1016.4 0.0
20/08:30am 28.0 25.2 11.5 35 9.5 SSW 17 20 9 11 1016.6 1016.6 0.0
20/08:00am 26.0 23.6 12.5 43 7.8 SSW 17 20 9 11 1016.6 1016.6 0.0
20/07:30am 24.3 22.0 12.9 49 6.6 SSW 17 20 9 11 1016.6 1016.6 0.0
20/07:00am 23.2 20.7 13.4 54 5.7 SSW 19 24 10 13 1016.3 1016.3 0.0
20/06:30am 21.8 20.0 13.4 59 4.8 SW 15 19 8 10 1016.3 1016.3 0.0
20/06:00am 21.3 19.6 13.5 61 4.5 SW 15 19 8 10 1016.2 1016.2 0.0
20/05:30am 21.5 19.7 13.4 60 4.7 SW 15 17 8 9 1015.9 1015.9 0.0
20/05:00am 21.4 19.5 13.1 59 4.7 SW 15 17 8 9 1015.7 1015.7 0.0
20/04:30am 21.7 20.7 13.3 59 4.8 SW 11 15 6 8 1015.5 1015.5 0.0
20/04:00am 22.1 19.9 13.2 57 5.1 SSW 17 20 9 11 1015.1 1015.1 0.0
20/03:30am 22.2 20.4 13.3 57 5.1 SSW 15 19 8 10 1015.1 1015.1 0.0
20/03:00am 22.5 20.2 13.0 55 5.4 SW 17 20 9 11 1015.0 1015.0 0.0
20/02:30am 22.6 20.7 13.1 55 5.5 SW 15 19 8 10 1014.8 1014.8 0.0
20/02:00am 23.0 20.8 13.2 54 5.7 SSW 17 20 9 11 1014.9 1014.9 0.0
20/01:30am 23.4 21.7 13.6 54 5.7 SSW 15 20 8 11 1015.0 1015.0 0.0
20/01:00am 23.5 21.9 13.9 55 5.6 SW 15 19 8 10 1015.3 1015.3 0.0
20/12:30am 23.8 22.2 13.9 54 5.8 SW 15 20 8 11 1015.4 1015.4 0.0
20/12:00am 24.3 22.2 13.5 51 6.3 SW 17 20 9 11 1015.4 1015.4 0.0
 
Date/Time
WST
Temp
°C
App
Temp
°C
Dew
Point
°C
Rel
Hum
%
Delta-T
°C
Wind Press
QNH
hPa
Press
MSL
hPa
Rain since
9am
mm
Dir  Spd
km/h
Gust
km/h
Spd
kts
Gust
kts
19/11:30pm 24.9 22.4 13.5 49 6.7 SW 19 20 10 11 1015.5 1015.5 0.0
19/11:00pm 25.2 22.2 12.4 45 7.4 SW 20 28 11 15 1015.6 1015.6 0.0
19/10:30pm 25.8 22.8 11.9 42 7.9 SW 19 24 10 13 1015.6 1015.6 0.0
19/10:00pm 26.4 23.1 10.9 38 8.7 SW 19 24 10 13 1015.6 1015.6 0.0
19/09:30pm 26.4 24.0 13.9 46 7.4 WSW 19 24 10 13 1015.3 1015.3 0.0
19/09:00pm 25.0 24.6 18.0 65 4.4 W 17 20 9 11 1015.1 1015.1 0.0
19/08:30pm 24.7 25.3 20.2 76 2.9 W 17 20 9 11 1014.9 1014.9 0.0
19/08:00pm 24.8 25.4 20.3 76 2.9 W 17 20 9 11 1014.6 1014.6 0.0
19/07:30pm 25.0 25.4 19.8 73 3.4 WNW 17 20 9 11 1014.1 1014.1 0.0
19/07:00pm 25.2 25.5 19.6 71 3.6 W 17 20 9 11 1013.7 1013.7 0.0
19/06:30pm 25.8 25.6 19.4 67 4.1 WNW 19 22 10 12 1013.4 1013.4 0.0
19/06:00pm 27.2 27.0 19.3 62 5.1 W 19 24 10 13 1013.0 1013.0 0.0
19/05:30pm 29.1 28.2 18.2 51 7.0 W 20 28 11 15 1012.8 1012.8 0.0

Other formats

Comma delimited format used in spreadsheet applications
http://www.bom.gov.au/fwo/IDW60801/IDW60801.95305.axf

JavaScript Object Notation format (JSON) in row-major order
http://www.bom.gov.au/fwo/IDW60801/IDW60801.95305.json

Data quality

Most of these data are generated automatically and are frequently updated. Quality checks on data are not normally performed. It is possible for incorrect values to appear. Refer to information at About Latest Weather Observations and please check the disclaimer before using these data.